sensor_id;sensor_type;location;lat;lon;timestamp;temperature;humidity
63283;DHT22;49407;51.388;0.048;2022-11-15T00:01:59;9.30;99.90
63283;DHT22;49407;51.388;0.048;2022-11-15T00:04:44;9.20;99.90
63283;DHT22;49407;51.388;0.048;2022-11-15T00:07:30;9.20;99.90
63283;DHT22;49407;51.388;0.048;2022-11-15T00:10:36;9.10;99.90
63283;DHT22;49407;51.388;0.048;2022-11-15T00:13:21;9.00;99.90
63283;DHT22;49407;51.388;0.048;2022-11-15T00:16:27;9.00;99.90
63283;DHT22;49407;51.388;0.048;2022-11-15T00:19:13;8.90;99.90
63283;DHT22;49407;51.388;0.048;2022-11-15T00:21:59;8.90;99.90
63283;DHT22;49407;51.388;0.048;2022-11-15T00:24:44;8.80;99.90
63283;DHT22;49407;51.388;0.048;2022-11-15T00:27:31;8.80;99.90
63283;DHT22;49407;51.388;0.048;2022-11-15T00:30:17;8.80;99.90
63283;DHT22;49407;51.388;0.048;2022-11-15T00:33:04;8.80;99.90
63283;DHT22;49407;51.388;0.048;2022-11-15T00:35:49;8.70;99.90
63283;DHT22;49407;51.388;0.048;2022-11-15T00:38:36;8.80;99.90
63283;DHT22;49407;51.388;0.048;2022-11-15T00:41:22;8.80;99.90
63283;DHT22;49407;51.388;0.048;2022-11-15T00:44:07;8.80;99.90
63283;DHT22;49407;51.388;0.048;2022-11-15T00:46:53;8.80;99.90
63283;DHT22;49407;51.388;0.048;2022-11-15T00:49:39;8.90;99.90
63283;DHT22;49407;51.388;0.048;2022-11-15T00:52:24;8.90;99.90
63283;DHT22;49407;51.388;0.048;2022-11-15T00:55:14;8.90;99.90
63283;DHT22;49407;51.388;0.048;2022-11-15T00:58:00;8.90;99.90
63283;DHT22;49407;51.388;0.048;2022-11-15T01:00:46;8.90;99.90
63283;DHT22;49407;51.388;0.048;2022-11-15T01:03:33;8.90;99.90
63283;DHT22;49407;51.388;0.048;2022-11-15T01:06:20;8.90;99.90
63283;DHT22;49407;51.388;0.048;2022-11-15T01:09:06;8.90;99.90
63283;DHT22;49407;51.388;0.048;2022-11-15T01:11:52;8.90;99.90
63283;DHT22;49407;51.388;0.048;2022-11-15T01:14:37;8.90;99.90
63283;DHT22;49407;51.388;0.048;2022-11-15T01:17:28;8.90;99.90
63283;DHT22;49407;51.388;0.048;2022-11-15T01:20:15;9.00;99.90
63283;DHT22;49407;51.388;0.048;2022-11-15T01:23:00;9.00;99.90
63283;DHT22;49407;51.388;0.048;2022-11-15T01:25:46;8.90;99.90
63283;DHT22;49407;51.388;0.048;2022-11-15T01:28:37;9.00;99.90
63283;DHT22;49407;51.388;0.048;2022-11-15T01:31:22;9.00;99.90
63283;DHT22;49407;51.388;0.048;2022-11-15T01:34:08;9.00;99.90
63283;DHT22;49407;51.388;0.048;2022-11-15T01:36:56;9.00;99.90
63283;DHT22;49407;51.388;0.048;2022-11-15T01:39:41;9.00;99.90
63283;DHT22;49407;51.388;0.048;2022-11-15T01:42:26;9.10;99.90
63283;DHT22;49407;51.388;0.048;2022-11-15T01:45:16;9.10;99.90
63283;DHT22;49407;51.388;0.048;2022-11-15T01:48:02;9.20;99.90
63283;DHT22;49407;51.388;0.048;2022-11-15T01:50:48;9.20;99.90
63283;DHT22;49407;51.388;0.048;2022-11-15T01:53:35;9.20;99.90
63283;DHT22;49407;51.388;0.048;2022-11-15T01:56:27;9.10;99.90
63283;DHT22;49407;51.388;0.048;2022-11-15T01:59:13;9.10;99.90
63283;DHT22;49407;51.388;0.048;2022-11-15T02:01:59;9.00;99.90
63283;DHT22;49407;51.388;0.048;2022-11-15T02:04:46;9.00;99.90
63283;DHT22;49407;51.388;0.048;2022-11-15T02:07:35;8.90;99.90
63283;DHT22;49407;51.388;0.048;2022-11-15T02:10:22;8.90;99.90
63283;DHT22;49407;51.388;0.048;2022-11-15T02:13:08;8.90;99.90
63283;DHT22;49407;51.388;0.048;2022-11-15T02:19:01;9.00;99.90
63283;DHT22;49407;51.388;0.048;2022-11-15T02:34:50;9.20;99.90
63283;DHT22;49407;51.388;0.048;2022-11-15T02:40:53;9.10;99.90
63283;DHT22;49407;51.388;0.048;2022-11-15T02:43:55;9.10;99.90
63283;DHT22;49407;51.388;0.048;2022-11-15T02:46:57;9.00;99.90
63283;DHT22;49407;51.388;0.048;2022-11-15T02:50:05;9.00;99.90
63283;DHT22;49407;51.388;0.048;2022-11-15T02:52:52;8.90;99.90
63283;DHT22;49407;51.388;0.048;2022-11-15T02:55:46;8.90;99.90
63283;DHT22;49407;51.388;0.048;2022-11-15T02:58:56;8.80;99.90
63283;DHT22;49407;51.388;0.048;2022-11-15T03:05:11;8.80;99.90
63283;DHT22;49407;51.388;0.048;2022-11-15T03:08:29;8.90;99.90
63283;DHT22;49407;51.388;0.048;2022-11-15T03:11:19;9.00;99.90
63283;DHT22;49407;51.388;0.048;2022-11-15T03:14:24;9.20;99.90
63283;DHT22;49407;51.388;0.048;2022-11-15T03:17:32;9.30;99.90
63283;DHT22;49407;51.388;0.048;2022-11-15T03:20:19;9.40;99.90
63283;DHT22;49407;51.388;0.048;2022-11-15T03:23:08;9.40;99.90
63283;DHT22;49407;51.388;0.048;2022-11-15T03:25:59;9.50;99.90
63283;DHT22;49407;51.388;0.048;2022-11-15T03:29:12;9.50;99.90
63283;DHT22;49407;51.388;0.048;2022-11-15T03:32:13;9.60;99.90
63283;DHT22;49407;51.388;0.048;2022-11-15T03:35:07;9.60;99.90
63283;DHT22;49407;51.388;0.048;2022-11-15T03:40:59;9.70;99.90
63283;DHT22;49407;51.388;0.048;2022-11-15T03:46:40;9.70;99.90
63283;DHT22;49407;51.388;0.048;2022-11-15T03:49:32;9.70;99.90
63283;DHT22;49407;51.388;0.048;2022-11-15T03:52:20;9.80;99.90
63283;DHT22;49407;51.388;0.048;2022-11-15T03:55:09;9.70;99.90
63283;DHT22;49407;51.388;0.048;2022-11-15T03:57:58;9.70;99.90
63283;DHT22;49407;51.388;0.048;2022-11-15T04:00:44;9.70;99.90
63283;DHT22;49407;51.388;0.048;2022-11-15T04:03:29;9.70;99.90
63283;DHT22;49407;51.388;0.048;2022-11-15T04:06:36;9.70;99.90
63283;DHT22;49407;51.388;0.048;2022-11-15T04:09:21;9.70;99.90
63283;DHT22;49407;51.388;0.048;2022-11-15T04:12:07;9.60;99.90
63283;DHT22;49407;51.388;0.048;2022-11-15T04:14:52;9.60;99.90
63283;DHT22;49407;51.388;0.048;2022-11-15T04:17:56;9.60;99.90
63283;DHT22;49407;51.388;0.048;2022-11-15T04:20:42;9.60;99.90
63283;DHT22;49407;51.388;0.048;2022-11-15T04:23:46;9.60;99.90
63283;DHT22;49407;51.388;0.048;2022-11-15T04:26:52;9.60;99.90
63283;DHT22;49407;51.388;0.048;2022-11-15T04:29:38;9.70;99.90
63283;DHT22;49407;51.388;0.048;2022-11-15T04:32:23;9.80;99.90
63283;DHT22;49407;51.388;0.048;2022-11-15T04:35:09;9.90;99.90
63283;DHT22;49407;51.388;0.048;2022-11-15T04:37:55;10.10;99.90
63283;DHT22;49407;51.388;0.048;2022-11-15T04:40:41;10.20;99.90
63283;DHT22;49407;51.388;0.048;2022-11-15T04:43:27;10.30;99.90
63283;DHT22;49407;51.388;0.048;2022-11-15T04:46:14;10.40;99.90
63283;DHT22;49407;51.388;0.048;2022-11-15T04:49:00;10.50;99.90
63283;DHT22;49407;51.388;0.048;2022-11-15T04:51:46;10.60;99.90
63283;DHT22;49407;51.388;0.048;2022-11-15T04:54:31;10.60;99.90
63283;DHT22;49407;51.388;0.048;2022-11-15T04:57:18;10.70;99.90
63283;DHT22;49407;51.388;0.048;2022-11-15T05:00:09;10.70;99.90
63283;DHT22;49407;51.388;0.048;2022-11-15T05:02:56;10.70;99.90
63283;DHT22;49407;51.388;0.048;2022-11-15T05:06:02;10.80;99.90
63283;DHT22;49407;51.388;0.048;2022-11-15T05:08:48;10.80;99.90
63283;DHT22;49407;51.388;0.048;2022-11-15T05:11:33;10.90;99.90
63283;DHT22;49407;51.388;0.048;2022-11-15T05:14:18;10.90;99.90
63283;DHT22;49407;51.388;0.048;2022-11-15T05:17:04;10.90;99.90
63283;DHT22;49407;51.388;0.048;2022-11-15T05:19:50;11.00;99.90
63283;DHT22;49407;51.388;0.048;2022-11-15T05:22:37;11.10;99.90
63283;DHT22;49407;51.388;0.048;2022-11-15T05:25:23;11.20;99.90
63283;DHT22;49407;51.388;0.048;2022-11-15T05:28:08;11.20;99.90
63283;DHT22;49407;51.388;0.048;2022-11-15T05:33:51;11.30;99.90
63283;DHT22;49407;51.388;0.048;2022-11-15T05:39:46;11.30;99.90
63283;DHT22;49407;51.388;0.048;2022-11-15T05:42:32;11.30;99.90
63283;DHT22;49407;51.388;0.048;2022-11-15T05:45:17;11.30;99.90
63283;DHT22;49407;51.388;0.048;2022-11-15T05:48:11;11.40;99.90
63283;DHT22;49407;51.388;0.048;2022-11-15T05:50:57;11.40;99.90
63283;DHT22;49407;51.388;0.048;2022-11-15T05:53:44;11.40;99.90
63283;DHT22;49407;51.388;0.048;2022-11-15T05:56:30;11.50;99.90
63283;DHT22;49407;51.388;0.048;2022-11-15T05:59:16;11.50;99.90
63283;DHT22;49407;51.388;0.048;2022-11-15T06:02:02;11.50;99.90
63283;DHT22;49407;51.388;0.048;2022-11-15T06:04:47;11.60;99.90
63283;DHT22;49407;51.388;0.048;2022-11-15T06:10:56;11.60;99.90
63283;DHT22;49407;51.388;0.048;2022-11-15T06:13:41;11.60;99.90
63283;DHT22;49407;51.388;0.048;2022-11-15T06:16:29;11.60;99.90
63283;DHT22;49407;51.388;0.048;2022-11-15T06:19:14;11.60;99.90
63283;DHT22;49407;51.388;0.048;2022-11-15T06:22:00;11.60;99.90
63283;DHT22;49407;51.388;0.048;2022-11-15T06:24:45;11.60;99.90
63283;DHT22;49407;51.388;0.048;2022-11-15T06:27:32;11.70;99.90
63283;DHT22;49407;51.388;0.048;2022-11-15T06:30:17;11.70;99.90
63283;DHT22;49407;51.388;0.048;2022-11-15T06:33:04;11.70;99.90
63283;DHT22;49407;51.388;0.048;2022-11-15T06:35:52;11.70;99.90
63283;DHT22;49407;51.388;0.048;2022-11-15T06:38:38;11.80;99.90
63283;DHT22;49407;51.388;0.048;2022-11-15T06:41:23;11.80;99.90
63283;DHT22;49407;51.388;0.048;2022-11-15T06:44:09;11.80;99.90
63283;DHT22;49407;51.388;0.048;2022-11-15T06:47:14;11.80;99.90
63283;DHT22;49407;51.388;0.048;2022-11-15T06:50:00;11.80;99.90
63283;DHT22;49407;51.388;0.048;2022-11-15T06:52:46;11.80;99.90
63283;DHT22;49407;51.388;0.048;2022-11-15T06:55:31;11.70;99.90
63283;DHT22;49407;51.388;0.048;2022-11-15T06:58:21;11.70;99.90
63283;DHT22;49407;51.388;0.048;2022-11-15T07:01:11;11.60;99.90
63283;DHT22;49407;51.388;0.048;2022-11-15T07:03:57;11.60;99.90
63283;DHT22;49407;51.388;0.048;2022-11-15T07:06:48;11.60;99.90
63283;DHT22;49407;51.388;0.048;2022-11-15T07:09:34;11.50;99.90
63283;DHT22;49407;51.388;0.048;2022-11-15T07:12:20;11.50;99.90
63283;DHT22;49407;51.388;0.048;2022-11-15T07:15:06;11.50;99.90
63283;DHT22;49407;51.388;0.048;2022-11-15T07:17:54;11.50;99.90
63283;DHT22;49407;51.388;0.048;2022-11-15T07:20:39;11.50;99.90
63283;DHT22;49407;51.388;0.048;2022-11-15T07:23:25;11.60;99.90
63283;DHT22;49407;51.388;0.048;2022-11-15T07:26:11;11.60;99.90
63283;DHT22;49407;51.388;0.048;2022-11-15T07:28:56;11.60;99.90
63283;DHT22;49407;51.388;0.048;2022-11-15T07:31:42;11.60;99.90
63283;DHT22;49407;51.388;0.048;2022-11-15T07:34:28;11.50;99.90
63283;DHT22;49407;51.388;0.048;2022-11-15T07:37:13;11.50;99.90
63283;DHT22;49407;51.388;0.048;2022-11-15T07:39:59;11.40;99.90
63283;DHT22;49407;51.388;0.048;2022-11-15T07:42:44;11.30;99.90
63283;DHT22;49407;51.388;0.048;2022-11-15T07:45:45;11.30;99.90
63283;DHT22;49407;51.388;0.048;2022-11-15T07:48:31;11.30;99.90
63283;DHT22;49407;51.388;0.048;2022-11-15T07:51:28;11.20;99.90
63283;DHT22;49407;51.388;0.048;2022-11-15T07:54:14;11.20;99.90
63283;DHT22;49407;51.388;0.048;2022-11-15T07:57:00;11.10;99.90
63283;DHT22;49407;51.388;0.048;2022-11-15T07:59:51;11.10;99.90
63283;DHT22;49407;51.388;0.048;2022-11-15T08:02:37;11.10;99.90
63283;DHT22;49407;51.388;0.048;2022-11-15T08:05:22;11.10;99.90
63283;DHT22;49407;51.388;0.048;2022-11-15T08:08:10;11.10;99.90
63283;DHT22;49407;51.388;0.048;2022-11-15T08:10:58;11.10;99.90
63283;DHT22;49407;51.388;0.048;2022-11-15T08:13:44;11.10;99.90
63283;DHT22;49407;51.388;0.048;2022-11-15T08:16:30;11.20;99.90
63283;DHT22;49407;51.388;0.048;2022-11-15T08:19:15;11.20;99.90
63283;DHT22;49407;51.388;0.048;2022-11-15T08:22:01;11.20;99.90
63283;DHT22;49407;51.388;0.048;2022-11-15T08:24:46;11.20;99.90
63283;DHT22;49407;51.388;0.048;2022-11-15T08:27:52;11.20;99.90
63283;DHT22;49407;51.388;0.048;2022-11-15T08:30:39;11.20;99.90
63283;DHT22;49407;51.388;0.048;2022-11-15T08:33:27;11.20;99.90
63283;DHT22;49407;51.388;0.048;2022-11-15T08:36:16;11.20;99.90
63283;DHT22;49407;51.388;0.048;2022-11-15T08:39:02;11.20;99.90
63283;DHT22;49407;51.388;0.048;2022-11-15T08:41:48;11.20;99.90
63283;DHT22;49407;51.388;0.048;2022-11-15T08:44:33;11.30;99.90
63283;DHT22;49407;51.388;0.048;2022-11-15T08:47:19;11.30;99.90
63283;DHT22;49407;51.388;0.048;2022-11-15T08:50:05;11.30;99.90
63283;DHT22;49407;51.388;0.048;2022-11-15T08:52:50;11.30;99.90
63283;DHT22;49407;51.388;0.048;2022-11-15T08:55:37;11.30;99.90
63283;DHT22;49407;51.388;0.048;2022-11-15T08:58:23;11.40;99.90
63283;DHT22;49407;51.388;0.048;2022-11-15T09:01:17;11.40;99.90
63283;DHT22;49407;51.388;0.048;2022-11-15T09:04:03;11.50;99.90
63283;DHT22;49407;51.388;0.048;2022-11-15T09:06:49;11.50;99.90
63283;DHT22;49407;51.388;0.048;2022-11-15T09:09:34;11.60;99.90
63283;DHT22;49407;51.388;0.048;2022-11-15T09:12:20;11.60;99.90
63283;DHT22;49407;51.388;0.048;2022-11-15T09:15:06;11.60;99.90
63283;DHT22;49407;51.388;0.048;2022-11-15T09:21:15;11.60;99.90
63283;DHT22;49407;51.388;0.048;2022-11-15T09:24:00;11.60;99.90
63283;DHT22;49407;51.388;0.048;2022-11-15T09:26:46;11.60;99.90
63283;DHT22;49407;51.388;0.048;2022-11-15T09:29:31;11.70;99.90
63283;DHT22;49407;51.388;0.048;2022-11-15T09:32:17;11.60;99.90
63283;DHT22;49407;51.388;0.048;2022-11-15T09:35:03;11.60;99.90
63283;DHT22;49407;51.388;0.048;2022-11-15T09:37:48;11.70;99.90
63283;DHT22;49407;51.388;0.048;2022-11-15T09:40:40;11.70;99.90
63283;DHT22;49407;51.388;0.048;2022-11-15T09:43:54;11.70;99.90
63283;DHT22;49407;51.388;0.048;2022-11-15T09:50:44;11.70;99.90
63283;DHT22;49407;51.388;0.048;2022-11-15T09:56:26;11.70;99.90
63283;DHT22;49407;51.388;0.048;2022-11-15T09:59:16;11.70;99.90
63283;DHT22;49407;51.388;0.048;2022-11-15T10:04:36;11.70;99.90
63283;DHT22;49407;51.388;0.048;2022-11-15T10:07:21;11.80;99.90
63283;DHT22;49407;51.388;0.048;2022-11-15T10:12:19;11.80;99.90
63283;DHT22;49407;51.388;0.048;2022-11-15T10:14:50;11.80;99.90
63283;DHT22;49407;51.388;0.048;2022-11-15T10:20:06;11.80;99.90
63283;DHT22;49407;51.388;0.048;2022-11-15T10:22:49;11.90;99.90
63283;DHT22;49407;51.388;0.048;2022-11-15T10:25:25;11.90;99.90
63283;DHT22;49407;51.388;0.048;2022-11-15T10:30:21;11.90;99.90
63283;DHT22;49407;51.388;0.048;2022-11-15T10:32:49;11.90;99.90
63283;DHT22;49407;51.388;0.048;2022-11-15T10:37:48;12.00;99.90
63283;DHT22;49407;51.388;0.048;2022-11-15T10:40:19;12.00;99.90
63283;DHT22;49407;51.388;0.048;2022-11-15T10:42:47;12.00;99.90
63283;DHT22;49407;51.388;0.048;2022-11-15T10:45:28;12.00;99.90
63283;DHT22;49407;51.388;0.048;2022-11-15T10:50:40;12.00;99.90
63283;DHT22;49407;51.388;0.048;2022-11-15T10:53:29;12.00;99.90
63283;DHT22;49407;51.388;0.048;2022-11-15T10:56:08;12.10;99.90
63283;DHT22;49407;51.388;0.048;2022-11-15T10:58:51;12.10;99.90
63283;DHT22;49407;51.388;0.048;2022-11-15T11:01:23;12.20;99.90
63283;DHT22;49407;51.388;0.048;2022-11-15T11:06:26;12.20;99.90
63283;DHT22;49407;51.388;0.048;2022-11-15T11:09:04;12.20;99.90
63283;DHT22;49407;51.388;0.048;2022-11-15T11:11:49;12.30;99.90
63283;DHT22;49407;51.388;0.048;2022-11-15T11:19:56;12.30;99.90
63283;DHT22;49407;51.388;0.048;2022-11-15T11:22:38;12.30;99.90
63283;DHT22;49407;51.388;0.048;2022-11-15T11:30:48;12.30;99.90
63283;DHT22;49407;51.388;0.048;2022-11-15T11:33:32;12.30;99.90
63283;DHT22;49407;51.388;0.048;2022-11-15T11:36:06;12.30;99.90
63283;DHT22;49407;51.388;0.048;2022-11-15T11:51:54;12.20;99.90
63283;DHT22;49407;51.388;0.048;2022-11-15T11:57:09;12.20;99.90
63283;DHT22;49407;51.388;0.048;2022-11-15T11:59:46;12.20;99.90
63283;DHT22;49407;51.388;0.048;2022-11-15T12:02:27;12.20;99.90
63283;DHT22;49407;51.388;0.048;2022-11-15T12:05:10;12.20;99.90
63283;DHT22;49407;51.388;0.048;2022-11-15T12:07:41;12.20;99.90
63283;DHT22;49407;51.388;0.048;2022-11-15T12:10:50;12.20;99.90
63283;DHT22;49407;51.388;0.048;2022-11-15T12:13:13;12.20;99.90
63283;DHT22;49407;51.388;0.048;2022-11-15T12:15:47;12.30;99.90
63283;DHT22;49407;51.388;0.048;2022-11-15T12:18:16;12.30;99.90
63283;DHT22;49407;51.388;0.048;2022-11-15T12:20:58;12.20;99.90
63283;DHT22;49407;51.388;0.048;2022-11-15T12:23:29;12.30;99.90
63283;DHT22;49407;51.388;0.048;2022-11-15T12:26:22;12.30;99.90
63283;DHT22;49407;51.388;0.048;2022-11-15T12:29:00;12.30;99.90
63283;DHT22;49407;51.388;0.048;2022-11-15T12:36:42;12.40;99.90
63283;DHT22;49407;51.388;0.048;2022-11-15T12:39:12;12.40;99.90
63283;DHT22;49407;51.388;0.048;2022-11-15T12:41:41;12.40;99.90
63283;DHT22;49407;51.388;0.048;2022-11-15T12:44:13;12.40;99.90
63283;DHT22;49407;51.388;0.048;2022-11-15T12:47:26;12.40;99.90
63283;DHT22;49407;51.388;0.048;2022-11-15T12:49:52;12.40;99.90
63283;DHT22;49407;51.388;0.048;2022-11-15T12:52:19;12.50;99.90
63283;DHT22;49407;51.388;0.048;2022-11-15T12:54:55;12.50;99.90
63283;DHT22;49407;51.388;0.048;2022-11-15T12:57:29;12.50;99.90
63283;DHT22;49407;51.388;0.048;2022-11-15T12:59:59;12.50;99.90
63283;DHT22;49407;51.388;0.048;2022-11-15T13:12:59;12.60;99.90
63283;DHT22;49407;51.388;0.048;2022-11-15T13:15:32;12.60;99.90
63283;DHT22;49407;51.388;0.048;2022-11-15T13:18:37;12.60;99.90
63283;DHT22;49407;51.388;0.048;2022-11-15T13:21:21;12.60;99.90
63283;DHT22;49407;51.388;0.048;2022-11-15T13:24:13;12.70;99.90
63283;DHT22;49407;51.388;0.048;2022-11-15T13:26:41;12.70;99.90
63283;DHT22;49407;51.388;0.048;2022-11-15T13:29:18;12.80;99.90
63283;DHT22;49407;51.388;0.048;2022-11-15T13:31:46;12.80;99.90
63283;DHT22;49407;51.388;0.048;2022-11-15T13:34:29;13.00;99.90
63283;DHT22;49407;51.388;0.048;2022-11-15T13:39:50;13.30;99.90
63283;DHT22;49407;51.388;0.048;2022-11-15T13:42:19;13.40;99.90
63283;DHT22;49407;51.388;0.048;2022-11-15T13:45:01;13.50;99.90
63283;DHT22;49407;51.388;0.048;2022-11-15T13:47:29;13.50;99.90
63283;DHT22;49407;51.388;0.048;2022-11-15T13:49:57;13.50;99.90
63283;DHT22;49407;51.388;0.048;2022-11-15T13:52:31;13.60;99.90
63283;DHT22;49407;51.388;0.048;2022-11-15T13:55:09;13.60;99.90
63283;DHT22;49407;51.388;0.048;2022-11-15T13:57:57;13.60;99.90
63283;DHT22;49407;51.388;0.048;2022-11-15T14:03:25;13.70;99.90
63283;DHT22;49407;51.388;0.048;2022-11-15T14:06:11;13.70;99.90
63283;DHT22;49407;51.388;0.048;2022-11-15T14:11:26;13.50;99.90
63283;DHT22;49407;51.388;0.048;2022-11-15T14:14:13;13.40;99.90
63283;DHT22;49407;51.388;0.048;2022-11-15T14:16:43;13.20;99.90
63283;DHT22;49407;51.388;0.048;2022-11-15T14:22:11;13.00;99.90
63283;DHT22;49407;51.388;0.048;2022-11-15T14:24:46;12.90;99.90
63283;DHT22;49407;51.388;0.048;2022-11-15T14:27:19;12.90;99.90
63283;DHT22;49407;51.388;0.048;2022-11-15T14:29:47;13.00;99.90
63283;DHT22;49407;51.388;0.048;2022-11-15T14:32:29;13.00;99.90
63283;DHT22;49407;51.388;0.048;2022-11-15T14:35:01;13.10;99.90
63283;DHT22;49407;51.388;0.048;2022-11-15T14:37:34;13.20;99.90
63283;DHT22;49407;51.388;0.048;2022-11-15T14:40:05;13.30;99.90
63283;DHT22;49407;51.388;0.048;2022-11-15T14:42:33;13.50;99.90
63283;DHT22;49407;51.388;0.048;2022-11-15T14:45:00;13.50;99.90
63283;DHT22;49407;51.388;0.048;2022-11-15T14:47:32;13.50;99.90
63283;DHT22;49407;51.388;0.048;2022-11-15T14:49:59;13.50;99.90
63283;DHT22;49407;51.388;0.048;2022-11-15T14:52:31;13.60;99.90
63283;DHT22;49407;51.388;0.048;2022-11-15T14:55:09;13.60;99.90
63283;DHT22;49407;51.388;0.048;2022-11-15T14:57:38;13.50;99.90
63283;DHT22;49407;51.388;0.048;2022-11-15T15:00:05;13.40;99.90
63283;DHT22;49407;51.388;0.048;2022-11-15T15:02:39;13.30;99.90
63283;DHT22;49407;51.388;0.048;2022-11-15T15:05:22;13.30;99.90
63283;DHT22;49407;51.388;0.048;2022-11-15T15:07:50;13.20;99.90
63283;DHT22;49407;51.388;0.048;2022-11-15T15:10:18;13.20;99.90
63283;DHT22;49407;51.388;0.048;2022-11-15T15:13:08;13.40;99.90
63283;DHT22;49407;51.388;0.048;2022-11-15T15:15:37;13.70;99.90
63283;DHT22;49407;51.388;0.048;2022-11-15T15:18:05;13.70;99.90
63283;DHT22;49407;51.388;0.048;2022-11-15T15:20:35;13.90;99.90
63283;DHT22;49407;51.388;0.048;2022-11-15T15:23:04;14.20;99.90
63283;DHT22;49407;51.388;0.048;2022-11-15T15:25:32;14.00;99.90
63283;DHT22;49407;51.388;0.048;2022-11-15T15:28:00;13.70;99.90
63283;DHT22;49407;51.388;0.048;2022-11-15T15:30:29;13.40;99.90
63283;DHT22;49407;51.388;0.048;2022-11-15T15:32:56;13.10;99.90
63283;DHT22;49407;51.388;0.048;2022-11-15T15:35:24;12.80;99.90
63283;DHT22;49407;51.388;0.048;2022-11-15T15:37:53;12.60;99.90
63283;DHT22;49407;51.388;0.048;2022-11-15T15:40:22;12.40;99.90
63283;DHT22;49407;51.388;0.048;2022-11-15T15:42:50;12.30;99.90
63283;DHT22;49407;51.388;0.048;2022-11-15T15:45:18;12.10;99.90
63283;DHT22;49407;51.388;0.048;2022-11-15T15:47:45;12.00;99.90
63283;DHT22;49407;51.388;0.048;2022-11-15T15:50:30;11.90;99.90
63283;DHT22;49407;51.388;0.048;2022-11-15T15:53:00;11.80;99.90
63283;DHT22;49407;51.388;0.048;2022-11-15T15:55:27;11.80;99.90
63283;DHT22;49407;51.388;0.048;2022-11-15T16:00:59;11.70;99.90
63283;DHT22;49407;51.388;0.048;2022-11-15T16:03:26;11.60;99.90
63283;DHT22;49407;51.388;0.048;2022-11-15T16:05:54;11.50;99.90
63283;DHT22;49407;51.388;0.048;2022-11-15T16:08:23;11.50;99.90
63283;DHT22;49407;51.388;0.048;2022-11-15T16:10:50;11.40;99.90
63283;DHT22;49407;51.388;0.048;2022-11-15T16:13:17;11.40;99.90
63283;DHT22;49407;51.388;0.048;2022-11-15T16:15:45;11.40;99.90
63283;DHT22;49407;51.388;0.048;2022-11-15T16:18:17;11.40;99.90
63283;DHT22;49407;51.388;0.048;2022-11-15T16:20:48;11.40;99.90
63283;DHT22;49407;51.388;0.048;2022-11-15T16:23:17;11.40;99.90
63283;DHT22;49407;51.388;0.048;2022-11-15T16:25:51;11.40;99.90
63283;DHT22;49407;51.388;0.048;2022-11-15T16:28:27;11.50;99.90
63283;DHT22;49407;51.388;0.048;2022-11-15T16:31:09;11.50;99.90
63283;DHT22;49407;51.388;0.048;2022-11-15T16:33:36;11.50;99.90
63283;DHT22;49407;51.388;0.048;2022-11-15T16:36:05;11.50;99.90
63283;DHT22;49407;51.388;0.048;2022-11-15T16:38:32;11.40;99.90
63283;DHT22;49407;51.388;0.048;2022-11-15T16:41:02;11.40;99.90
63283;DHT22;49407;51.388;0.048;2022-11-15T16:43:29;11.40;99.90
63283;DHT22;49407;51.388;0.048;2022-11-15T16:45:56;11.40;99.90
63283;DHT22;49407;51.388;0.048;2022-11-15T16:48:25;11.30;99.90
63283;DHT22;49407;51.388;0.048;2022-11-15T16:50:57;11.20;99.90
63283;DHT22;49407;51.388;0.048;2022-11-15T16:53:25;11.10;99.90
63283;DHT22;49407;51.388;0.048;2022-11-15T16:55:54;11.00;99.90
63283;DHT22;49407;51.388;0.048;2022-11-15T16:58:21;10.90;99.90
63283;DHT22;49407;51.388;0.048;2022-11-15T17:00:52;10.90;99.90
63283;DHT22;49407;51.388;0.048;2022-11-15T17:03:23;10.90;99.90
63283;DHT22;49407;51.388;0.048;2022-11-15T17:05:52;10.80;99.90
63283;DHT22;49407;51.388;0.048;2022-11-15T17:08:27;10.80;99.90
63283;DHT22;49407;51.388;0.048;2022-11-15T17:11:08;10.70;99.90
63283;DHT22;49407;51.388;0.048;2022-11-15T17:13:35;10.60;99.90
63283;DHT22;49407;51.388;0.048;2022-11-15T17:16:10;10.50;99.90
63283;DHT22;49407;51.388;0.048;2022-11-15T17:18:37;10.40;99.90
63283;DHT22;49407;51.388;0.048;2022-11-15T17:21:12;10.40;99.90
63283;DHT22;49407;51.388;0.048;2022-11-15T17:23:40;10.40;99.90
63283;DHT22;49407;51.388;0.048;2022-11-15T17:26:09;10.30;99.90
63283;DHT22;49407;51.388;0.048;2022-11-15T17:28:56;10.40;99.90
63283;DHT22;49407;51.388;0.048;2022-11-15T17:31:26;10.50;99.90
63283;DHT22;49407;51.388;0.048;2022-11-15T17:33:53;10.50;99.90
63283;DHT22;49407;51.388;0.048;2022-11-15T17:36:39;10.60;99.90
63283;DHT22;49407;51.388;0.048;2022-11-15T17:39:06;10.70;99.90
63283;DHT22;49407;51.388;0.048;2022-11-15T17:41:33;10.70;99.90
63283;DHT22;49407;51.388;0.048;2022-11-15T17:44:00;10.70;99.90
63283;DHT22;49407;51.388;0.048;2022-11-15T17:49:34;10.70;99.90
63283;DHT22;49407;51.388;0.048;2022-11-15T17:52:05;10.70;99.90
63283;DHT22;49407;51.388;0.048;2022-11-15T17:54:32;10.70;99.90
63283;DHT22;49407;51.388;0.048;2022-11-15T17:57:01;10.80;99.90
63283;DHT22;49407;51.388;0.048;2022-11-15T17:59:27;10.80;99.90
63283;DHT22;49407;51.388;0.048;2022-11-15T18:01:54;10.80;99.90
63283;DHT22;49407;51.388;0.048;2022-11-15T18:04:21;10.80;99.90
63283;DHT22;49407;51.388;0.048;2022-11-15T18:06:54;10.80;99.90
63283;DHT22;49407;51.388;0.048;2022-11-15T18:09:22;10.80;99.90
63283;DHT22;49407;51.388;0.048;2022-11-15T18:11:50;10.80;99.90
63283;DHT22;49407;51.388;0.048;2022-11-15T18:14:19;10.80;99.90
63283;DHT22;49407;51.388;0.048;2022-11-15T18:16:47;10.80;99.90
63283;DHT22;49407;51.388;0.048;2022-11-15T18:19:14;10.80;99.90
63283;DHT22;49407;51.388;0.048;2022-11-15T18:21:43;10.80;99.90
63283;DHT22;49407;51.388;0.048;2022-11-15T18:24:27;10.70;99.90
63283;DHT22;49407;51.388;0.048;2022-11-15T18:26:58;10.70;99.90
63283;DHT22;49407;51.388;0.048;2022-11-15T18:29:25;10.60;99.90
63283;DHT22;49407;51.388;0.048;2022-11-15T18:31:52;10.50;99.90
63283;DHT22;49407;51.388;0.048;2022-11-15T18:34:27;10.50;99.90
63283;DHT22;49407;51.388;0.048;2022-11-15T18:37:00;10.50;99.90
63283;DHT22;49407;51.388;0.048;2022-11-15T18:39:28;10.40;99.90
63283;DHT22;49407;51.388;0.048;2022-11-15T18:41:55;10.30;99.90
63283;DHT22;49407;51.388;0.048;2022-11-15T18:44:22;10.10;99.90
63283;DHT22;49407;51.388;0.048;2022-11-15T18:46:51;10.00;99.90
63283;DHT22;49407;51.388;0.048;2022-11-15T18:49:18;9.90;99.90
63283;DHT22;49407;51.388;0.048;2022-11-15T18:51:46;9.80;99.90
63283;DHT22;49407;51.388;0.048;2022-11-15T18:54:15;9.80;99.90
63283;DHT22;49407;51.388;0.048;2022-11-15T18:56:47;9.60;99.90
63283;DHT22;49407;51.388;0.048;2022-11-15T18:59:15;9.50;99.90
63283;DHT22;49407;51.388;0.048;2022-11-15T19:01:44;9.50;99.90
63283;DHT22;49407;51.388;0.048;2022-11-15T19:04:16;9.50;99.90
63283;DHT22;49407;51.388;0.048;2022-11-15T19:06:46;9.60;99.90
63283;DHT22;49407;51.388;0.048;2022-11-15T19:09:14;9.50;99.90